sensor_id;sensor_type;location;lat;lon;timestamp;pressure;altitude;pressure_sealevel;temperature;humidity
13734;BME280;43298;52.560;13.508;2023-02-10T00:01:24;102593.06;;;1.59;100.00
13734;BME280;43298;52.560;13.508;2023-02-10T00:03:50;102594.53;;;1.51;100.00
13734;BME280;43298;52.560;13.508;2023-02-10T00:06:18;102596.25;;;1.50;100.00
13734;BME280;43298;52.560;13.508;2023-02-10T00:08:52;102596.28;;;1.52;100.00
13734;BME280;43298;52.560;13.508;2023-02-10T00:11:18;102592.88;;;1.51;100.00
13734;BME280;43298;52.560;13.508;2023-02-10T00:13:45;102594.63;;;1.54;100.00
13734;BME280;43298;52.560;13.508;2023-02-10T00:16:14;102591.22;;;1.53;100.00
13734;BME280;43298;52.560;13.508;2023-02-10T00:18:40;102591.91;;;1.46;100.00
13734;BME280;43298;52.560;13.508;2023-02-10T00:21:16;102588.97;;;1.33;100.00
13734;BME280;43298;52.560;13.508;2023-02-10T00:23:43;102597.34;;;1.27;100.00
13734;BME280;43298;52.560;13.508;2023-02-10T00:26:12;102601.53;;;1.25;100.00
13734;BME280;43298;52.560;13.508;2023-02-10T00:28:38;102600.66;;;1.25;100.00
13734;BME280;43298;52.560;13.508;2023-02-10T00:31:22;102607.19;;;1.14;100.00
13734;BME280;43298;52.560;13.508;2023-02-10T00:33:48;102589.22;;;1.09;100.00
13734;BME280;43298;52.560;13.508;2023-02-10T00:36:15;102600.22;;;1.08;100.00
13734;BME280;43298;52.560;13.508;2023-02-10T00:38:42;102595.50;;;1.22;100.00
13734;BME280;43298;52.560;13.508;2023-02-10T00:41:17;102597.22;;;1.23;100.00
13734;BME280;43298;52.560;13.508;2023-02-10T00:43:44;102596.28;;;1.19;100.00
13734;BME280;43298;52.560;13.508;2023-02-10T00:46:16;102600.66;;;1.25;100.00
13734;BME280;43298;52.560;13.508;2023-02-10T00:48:43;102599.34;;;1.39;100.00
13734;BME280;43298;52.560;13.508;2023-02-10T00:51:10;102604.47;;;1.40;100.00
13734;BME280;43298;52.560;13.508;2023-02-10T00:53:36;102608.88;;;1.46;100.00
13734;BME280;43298;52.560;13.508;2023-02-10T00:56:02;102614.84;;;1.48;100.00
13734;BME280;43298;52.560;13.508;2023-02-10T00:58:28;102619.09;;;1.47;100.00
13734;BME280;43298;52.560;13.508;2023-02-10T01:00:55;102623.63;;;1.57;100.00
13734;BME280;43298;52.560;13.508;2023-02-10T01:03:21;102619.44;;;1.61;100.00
13734;BME280;43298;52.560;13.508;2023-02-10T01:05:47;102627.16;;;1.64;100.00
13734;BME280;43298;52.560;13.508;2023-02-10T01:08:14;102628.03;;;1.64;100.00
13734;BME280;43298;52.560;13.508;2023-02-10T01:10:40;102632.44;;;1.70;100.00
13734;BME280;43298;52.560;13.508;2023-02-10T01:13:08;102628.16;;;1.70;100.00
13734;BME280;43298;52.560;13.508;2023-02-10T01:15:35;102626.28;;;1.63;100.00
13734;BME280;43298;52.560;13.508;2023-02-10T01:18:01;102626.00;;;1.51;100.00
13734;BME280;43298;52.560;13.508;2023-02-10T01:20:27;102632.56;;;1.42;100.00
13734;BME280;43298;52.560;13.508;2023-02-10T01:22:53;102627.03;;;1.25;100.00
13734;BME280;43298;52.560;13.508;2023-02-10T01:25:19;102627.72;;;1.20;100.00
13734;BME280;43298;52.560;13.508;2023-02-10T01:27:45;102623.16;;;1.08;100.00
13734;BME280;43298;52.560;13.508;2023-02-10T01:30:12;102630.63;;;1.02;100.00
13734;BME280;43298;52.560;13.508;2023-02-10T01:32:38;102636.72;;;1.07;100.00
13734;BME280;43298;52.560;13.508;2023-02-10T01:35:04;102632.16;;;0.96;100.00
13734;BME280;43298;52.560;13.508;2023-02-10T01:37:30;102635.63;;;0.99;100.00
13734;BME280;43298;52.560;13.508;2023-02-10T01:39:56;102629.03;;;1.06;100.00
13734;BME280;43298;52.560;13.508;2023-02-10T01:42:22;102632.34;;;1.03;100.00
13734;BME280;43298;52.560;13.508;2023-02-10T01:47:13;102621.53;;;0.81;100.00
13734;BME280;43298;52.560;13.508;2023-02-10T01:49:46;102608.59;;;0.73;100.00
13734;BME280;43298;52.560;13.508;2023-02-10T01:52:24;102612.00;;;0.74;100.00
13734;BME280;43298;52.560;13.508;2023-02-10T01:55:14;102608.16;;;0.58;100.00
13734;BME280;43298;52.560;13.508;2023-02-10T01:57:43;102613.94;;;0.53;100.00
13734;BME280;43298;52.560;13.508;2023-02-10T02:00:11;102609.53;;;0.47;100.00
13734;BME280;43298;52.560;13.508;2023-02-10T02:02:37;102610.09;;;0.37;100.00
13734;BME280;43298;52.560;13.508;2023-02-10T02:05:17;102610.97;;;0.38;100.00
13734;BME280;43298;52.560;13.508;2023-02-10T02:07:43;102616.03;;;0.38;100.00
13734;BME280;43298;52.560;13.508;2023-02-10T02:10:09;102617.47;;;0.58;100.00
13734;BME280;43298;52.560;13.508;2023-02-10T02:12:56;102616.97;;;0.41;100.00
13734;BME280;43298;52.560;13.508;2023-02-10T02:15:48;102624.81;;;0.47;100.00
13734;BME280;43298;52.560;13.508;2023-02-10T02:19:03;102628.09;;;0.43;100.00
13734;BME280;43298;52.560;13.508;2023-02-10T02:22:06;102644.38;;;0.22;100.00
13734;BME280;43298;52.560;13.508;2023-02-10T02:24:51;102640.09;;;0.21;100.00
13734;BME280;43298;52.560;13.508;2023-02-10T02:28:05;102640.00;;;0.18;100.00
13734;BME280;43298;52.560;13.508;2023-02-10T02:33:27;102640.06;;;0.19;100.00
13734;BME280;43298;52.560;13.508;2023-02-10T02:36:34;102640.78;;;0.15;100.00
13734;BME280;43298;52.560;13.508;2023-02-10T02:39:04;102637.78;;;0.28;100.00
13734;BME280;43298;52.560;13.508;2023-02-10T02:41:32;102638.94;;;0.39;100.00
13734;BME280;43298;52.560;13.508;2023-02-10T02:44:00;102639.44;;;0.26;100.00
13734;BME280;43298;52.560;13.508;2023-02-10T02:49:34;102628.34;;;0.52;100.00
13734;BME280;43298;52.560;13.508;2023-02-10T02:52:14;102622.75;;;0.64;100.00
13734;BME280;43298;52.560;13.508;2023-02-10T02:55:13;102629.91;;;0.77;100.00
13734;BME280;43298;52.560;13.508;2023-02-10T02:57:55;102632.06;;;0.93;100.00
13734;BME280;43298;52.560;13.508;2023-02-10T03:00:32;102636.28;;;0.92;100.00
13734;BME280;43298;52.560;13.508;2023-02-10T03:03:00;102638.91;;;0.95;100.00
13734;BME280;43298;52.560;13.508;2023-02-10T03:05:31;102630.47;;;0.96;100.00
13734;BME280;43298;52.560;13.508;2023-02-10T03:07:58;102636.53;;;1.01;100.00
13734;BME280;43298;52.560;13.508;2023-02-10T03:10:24;102638.47;;;1.10;100.00
13734;BME280;43298;52.560;13.508;2023-02-10T03:12:50;102643.41;;;1.04;100.00
13734;BME280;43298;52.560;13.508;2023-02-10T03:15:19;102634.97;;;1.06;100.00
13734;BME280;43298;52.560;13.508;2023-02-10T03:17:45;102638.47;;;1.10;100.00
13734;BME280;43298;52.560;13.508;2023-02-10T03:20:11;102645.28;;;1.11;100.00
13734;BME280;43298;52.560;13.508;2023-02-10T03:22:37;102649.66;;;1.15;100.00
13734;BME280;43298;52.560;13.508;2023-02-10T03:25:03;102640.19;;;1.11;100.00
13734;BME280;43298;52.560;13.508;2023-02-10T03:27:29;102639.41;;;1.13;100.00
13734;BME280;43298;52.560;13.508;2023-02-10T03:29:55;102643.44;;;1.05;100.00
13734;BME280;43298;52.560;13.508;2023-02-10T03:32:20;102644.38;;;1.07;100.00
13734;BME280;43298;52.560;13.508;2023-02-10T03:34:47;102652.16;;;1.13;100.00
13734;BME280;43298;52.560;13.508;2023-02-10T03:37:13;102650.66;;;1.20;100.00
13734;BME280;43298;52.560;13.508;2023-02-10T03:39:38;102655.84;;;1.24;100.00
13734;BME280;43298;52.560;13.508;2023-02-10T03:42:04;102647.53;;;1.31;100.00
13734;BME280;43298;52.560;13.508;2023-02-10T03:44:30;102649.28;;;1.32;100.00
13734;BME280;43298;52.560;13.508;2023-02-10T03:46:56;102640.72;;;1.30;100.00
13734;BME280;43298;52.560;13.508;2023-02-10T03:49:22;102642.22;;;1.22;100.00
13734;BME280;43298;52.560;13.508;2023-02-10T03:51:48;102651.72;;;1.28;100.00
13734;BME280;43298;52.560;13.508;2023-02-10T03:54:14;102660.09;;;1.24;100.00
13734;BME280;43298;52.560;13.508;2023-02-10T03:56:40;102659.19;;;1.22;100.00
13734;BME280;43298;52.560;13.508;2023-02-10T03:59:06;102653.28;;;1.24;100.00
13734;BME280;43298;52.560;13.508;2023-02-10T04:01:32;102655.75;;;1.20;100.00
13734;BME280;43298;52.560;13.508;2023-02-10T04:03:59;102655.81;;;1.23;100.00
13734;BME280;43298;52.560;13.508;2023-02-10T04:06:25;102653.25;;;1.23;100.00
13734;BME280;43298;52.560;13.508;2023-02-10T04:08:51;102641.66;;;1.32;100.00
13734;BME280;43298;52.560;13.508;2023-02-10T04:11:17;102631.50;;;1.35;100.00
13734;BME280;43298;52.560;13.508;2023-02-10T04:13:44;102625.53;;;1.33;100.00
13734;BME280;43298;52.560;13.508;2023-02-10T04:16:14;102638.41;;;1.38;100.00
13734;BME280;43298;52.560;13.508;2023-02-10T04:18:41;102629.84;;;1.36;100.00
13734;BME280;43298;52.560;13.508;2023-02-10T04:21:09;102629.78;;;1.34;100.00
13734;BME280;43298;52.560;13.508;2023-02-10T04:23:36;102631.69;;;1.41;100.00
13734;BME280;43298;52.560;13.508;2023-02-10T04:26:03;102631.59;;;1.38;100.00
13734;BME280;43298;52.560;13.508;2023-02-10T04:28:29;102639.31;;;1.41;100.00
13734;BME280;43298;52.560;13.508;2023-02-10T04:30:58;102652.16;;;1.44;100.00
13734;BME280;43298;52.560;13.508;2023-02-10T04:33:24;102651.22;;;1.42;100.00
13734;BME280;43298;52.560;13.508;2023-02-10T04:35:52;102649.44;;;1.38;100.00
13734;BME280;43298;52.560;13.508;2023-02-10T04:38:19;102659.72;;;1.41;100.00
13734;BME280;43298;52.560;13.508;2023-02-10T04:40:45;102661.44;;;1.42;100.00
13734;BME280;43298;52.560;13.508;2023-02-10T04:43:11;102670.16;;;1.50;100.00
13734;BME280;43298;52.560;13.508;2023-02-10T04:45:38;102656.59;;;1.51;100.00
13734;BME280;43298;52.560;13.508;2023-02-10T04:48:04;102653.19;;;1.52;100.00
13734;BME280;43298;52.560;13.508;2023-02-10T04:50:31;102651.53;;;1.53;100.00
13734;BME280;43298;52.560;13.508;2023-02-10T04:52:57;102653.28;;;1.55;100.00
13734;BME280;43298;52.560;13.508;2023-02-10T04:55:22;102658.31;;;1.52;100.00
13734;BME280;43298;52.560;13.508;2023-02-10T04:57:48;102653.16;;;1.51;100.00
13734;BME280;43298;52.560;13.508;2023-02-10T05:00:15;102669.28;;;1.50;100.00
13734;BME280;43298;52.560;13.508;2023-02-10T05:02:40;102670.28;;;1.56;100.00
13734;BME280;43298;52.560;13.508;2023-02-10T05:05:09;102661.78;;;1.54;100.00
13734;BME280;43298;52.560;13.508;2023-02-10T05:07:36;102670.28;;;1.56;100.00
13734;BME280;43298;52.560;13.508;2023-02-10T05:10:01;102663.47;;;1.55;100.00
13734;BME280;43298;52.560;13.508;2023-02-10T05:12:27;102666.88;;;1.54;100.00
13734;BME280;43298;52.560;13.508;2023-02-10T05:14:53;102676.28;;;1.57;100.00
13734;BME280;43298;52.560;13.508;2023-02-10T05:17:19;102675.47;;;1.59;100.00
13734;BME280;43298;52.560;13.508;2023-02-10T05:19:45;102671.25;;;1.60;100.00
13734;BME280;43298;52.560;13.508;2023-02-10T05:22:11;102674.56;;;1.56;100.00
13734;BME280;43298;52.560;13.508;2023-02-10T05:24:36;102673.69;;;1.55;100.00
13734;BME280;43298;52.560;13.508;2023-02-10T05:27:02;102670.13;;;1.49;100.00
13734;BME280;43298;52.560;13.508;2023-02-10T05:29:28;102671.72;;;1.45;100.00
13734;BME280;43298;52.560;13.508;2023-02-10T05:31:54;102666.53;;;1.42;100.00
13734;BME280;43298;52.560;13.508;2023-02-10T05:34:20;102670.78;;;1.42;100.00
13734;BME280;43298;52.560;13.508;2023-02-10T05:36:45;102675.66;;;1.34;100.00
13734;BME280;43298;52.560;13.508;2023-02-10T05:39:12;102677.88;;;1.22;100.00
13734;BME280;43298;52.560;13.508;2023-02-10T05:41:59;102680.25;;;1.16;100.00
13734;BME280;43298;52.560;13.508;2023-02-10T05:44:27;102680.31;;;1.18;100.00
13734;BME280;43298;52.560;13.508;2023-02-10T05:46:53;102685.16;;;1.09;100.00
13734;BME280;43298;52.560;13.508;2023-02-10T05:49:19;102674.09;;;1.08;100.00
13734;BME280;43298;52.560;13.508;2023-02-10T05:51:45;102678.22;;;1.05;100.00
13734;BME280;43298;52.560;13.508;2023-02-10T05:54:12;102671.00;;;0.89;100.00
13734;BME280;43298;52.560;13.508;2023-02-10T05:56:39;102661.91;;;0.98;100.00
13734;BME280;43298;52.560;13.508;2023-02-10T05:59:05;102669.44;;;0.94;100.00
13734;BME280;43298;52.560;13.508;2023-02-10T06:01:32;102661.97;;;1.00;100.00
13734;BME280;43298;52.560;13.508;2023-02-10T06:03:58;102669.75;;;1.04;100.00
13734;BME280;43298;52.560;13.508;2023-02-10T06:06:24;102681.28;;;0.92;100.00
13734;BME280;43298;52.560;13.508;2023-02-10T06:08:50;102685.50;;;0.91;100.00
13734;BME280;43298;52.560;13.508;2023-02-10T06:11:16;102693.97;;;0.90;100.00
13734;BME280;43298;52.560;13.508;2023-02-10T06:13:42;102689.69;;;0.89;100.00
13734;BME280;43298;52.560;13.508;2023-02-10T06:16:08;102683.97;;;0.98;100.00
13734;BME280;43298;52.560;13.508;2023-02-10T06:18:34;102702.84;;;1.04;100.00
13734;BME280;43298;52.560;13.508;2023-02-10T06:21:00;102701.28;;;1.09;100.00
13734;BME280;43298;52.560;13.508;2023-02-10T06:23:26;102695.34;;;1.09;100.00
13734;BME280;43298;52.560;13.508;2023-02-10T06:25:52;102701.50;;;1.17;100.00
13734;BME280;43298;52.560;13.508;2023-02-10T06:28:24;102715.91;;;1.16;100.00
13734;BME280;43298;52.560;13.508;2023-02-10T06:30:51;102712.53;;;1.17;100.00
13734;BME280;43298;52.560;13.508;2023-02-10T06:33:17;102710.13;;;1.22;100.00
13734;BME280;43298;52.560;13.508;2023-02-10T06:35:43;102708.41;;;1.21;100.00
13734;BME280;43298;52.560;13.508;2023-02-10T06:38:10;102707.31;;;1.11;100.00
13734;BME280;43298;52.560;13.508;2023-02-10T06:40:36;102717.25;;;1.04;100.00
13734;BME280;43298;52.560;13.508;2023-02-10T06:43:02;102717.13;;;0.99;100.00
13734;BME280;43298;52.560;13.508;2023-02-10T06:45:29;102724.75;;;0.99;100.00
13734;BME280;43298;52.560;13.508;2023-02-10T06:47:54;102727.53;;;1.07;100.00
13734;BME280;43298;52.560;13.508;2023-02-10T06:50:21;102722.50;;;1.08;100.00
13734;BME280;43298;52.560;13.508;2023-02-10T06:52:48;102729.34;;;1.11;100.00
13734;BME280;43298;52.560;13.508;2023-02-10T06:55:14;102724.94;;;1.05;100.00
13734;BME280;43298;52.560;13.508;2023-02-10T06:57:40;102728.38;;;1.06;100.00
13734;BME280;43298;52.560;13.508;2023-02-10T07:00:10;102741.22;;;1.10;100.00
13734;BME280;43298;52.560;13.508;2023-02-10T07:02:37;102739.78;;;1.18;100.00
13734;BME280;43298;52.560;13.508;2023-02-10T07:05:05;102739.13;;;1.25;100.00
13734;BME280;43298;52.560;13.508;2023-02-10T07:07:34;102744.13;;;1.22;100.00
13734;BME280;43298;52.560;13.508;2023-02-10T07:09:59;102733.16;;;1.25;100.00
13734;BME280;43298;52.560;13.508;2023-02-10T07:12:25;102732.13;;;1.49;100.00
13734;BME280;43298;52.560;13.508;2023-02-10T07:14:52;102740.47;;;1.44;100.00
13734;BME280;43298;52.560;13.508;2023-02-10T07:17:18;102740.53;;;1.45;100.00
13734;BME280;43298;52.560;13.508;2023-02-10T07:19:44;102741.53;;;1.50;100.00
13734;BME280;43298;52.560;13.508;2023-02-10T07:22:10;102747.59;;;1.55;100.00
13734;BME280;43298;52.560;13.508;2023-02-10T07:24:36;102748.56;;;1.59;100.00
13734;BME280;43298;52.560;13.508;2023-02-10T07:27:03;102757.97;;;1.61;100.00
13734;BME280;43298;52.560;13.508;2023-02-10T07:29:30;102757.31;;;1.68;100.00
13734;BME280;43298;52.560;13.508;2023-02-10T07:31:56;102760.06;;;1.76;100.00
13734;BME280;43298;52.560;13.508;2023-02-10T07:34:24;102763.72;;;1.85;100.00
13734;BME280;43298;52.560;13.508;2023-02-10T07:36:50;102751.03;;;1.88;100.00
13734;BME280;43298;52.560;13.508;2023-02-10T07:39:23;102764.91;;;1.99;100.00
13734;BME280;43298;52.560;13.508;2023-02-10T07:41:50;102755.78;;;2.07;100.00
13734;BME280;43298;52.560;13.508;2023-02-10T07:44:16;102753.28;;;2.09;100.00
13734;BME280;43298;52.560;13.508;2023-02-10T07:46:42;102751.69;;;2.14;100.00
13734;BME280;43298;52.560;13.508;2023-02-10T07:49:08;102769.63;;;2.17;100.00
13734;BME280;43298;52.560;13.508;2023-02-10T07:51:34;102773.00;;;2.14;100.00
13734;BME280;43298;52.560;13.508;2023-02-10T07:54:00;102765.41;;;2.19;100.00
13734;BME280;43298;52.560;13.508;2023-02-10T07:56:26;102774.75;;;2.17;100.00
13734;BME280;43298;52.560;13.508;2023-02-10T07:58:51;102775.78;;;2.25;100.00
13734;BME280;43298;52.560;13.508;2023-02-10T08:01:18;102774.97;;;2.26;100.00
13734;BME280;43298;52.560;13.508;2023-02-10T08:03:44;102774.25;;;2.31;100.00
13734;BME280;43298;52.560;13.508;2023-02-10T08:06:10;102771.84;;;2.37;100.00
13734;BME280;43298;52.560;13.508;2023-02-10T08:08:35;102779.63;;;2.42;100.00
13734;BME280;43298;52.560;13.508;2023-02-10T08:11:05;102778.03;;;2.47;100.00
13734;BME280;43298;52.560;13.508;2023-02-10T08:13:32;102779.88;;;2.52;100.00
13734;BME280;43298;52.560;13.508;2023-02-10T08:15:58;102786.94;;;2.62;100.00
13734;BME280;43298;52.560;13.508;2023-02-10T08:18:24;102778.66;;;2.72;100.00
13734;BME280;43298;52.560;13.508;2023-02-10T08:20:50;102783.09;;;2.81;100.00
13734;BME280;43298;52.560;13.508;2023-02-10T08:23:17;102787.41;;;2.83;100.00
13734;BME280;43298;52.560;13.508;2023-02-10T08:25:43;102782.47;;;2.89;100.00
13734;BME280;43298;52.560;13.508;2023-02-10T08:28:09;102791.97;;;2.96;100.00
13734;BME280;43298;52.560;13.508;2023-02-10T08:30:35;102790.34;;;3.00;100.00
13734;BME280;43298;52.560;13.508;2023-02-10T08:33:02;102799.84;;;3.05;100.00
13734;BME280;43298;52.560;13.508;2023-02-10T08:35:28;102794.72;;;3.05;100.00
13734;BME280;43298;52.560;13.508;2023-02-10T08:37:54;102794.72;;;3.05;100.00
13734;BME280;43298;52.560;13.508;2023-02-10T08:40:20;102796.50;;;3.09;100.00
13734;BME280;43298;52.560;13.508;2023-02-10T08:42:45;102790.59;;;3.10;100.00
13734;BME280;43298;52.560;13.508;2023-02-10T08:45:11;102795.09;;;3.21;100.00
13734;BME280;43298;52.560;13.508;2023-02-10T08:47:37;102798.59;;;3.26;100.00
13734;BME280;43298;52.560;13.508;2023-02-10T08:50:04;102794.56;;;3.37;100.00
13734;BME280;43298;52.560;13.508;2023-02-10T08:52:30;102805.06;;;3.50;100.00
13734;BME280;43298;52.560;13.508;2023-02-10T08:54:56;102790.03;;;3.65;100.00
13734;BME280;43298;52.560;13.508;2023-02-10T08:57:22;102791.78;;;3.68;100.00
13734;BME280;43298;52.560;13.508;2023-02-10T08:59:48;102797.09;;;3.78;100.00
13734;BME280;43298;52.560;13.508;2023-02-10T09:02:14;102805.69;;;3.82;100.00
13734;BME280;43298;52.560;13.508;2023-02-10T09:04:41;102799.84;;;3.87;100.00
13734;BME280;43298;52.560;13.508;2023-02-10T09:07:07;102793.06;;;3.91;100.00
13734;BME280;43298;52.560;13.508;2023-02-10T09:09:39;102797.34;;;3.92;100.00
13734;BME280;43298;52.560;13.508;2023-02-10T09:12:06;102798.38;;;4.00;100.00
13734;BME280;43298;52.560;13.508;2023-02-10T09:14:32;102803.88;;;4.21;100.00
13734;BME280;43298;52.560;13.508;2023-02-10T09:16:58;102807.34;;;4.26;100.00
13734;BME280;43298;52.560;13.508;2023-02-10T09:19:24;102813.31;;;4.25;100.00
13734;BME280;43298;52.560;13.508;2023-02-10T09:21:50;102807.09;;;4.11;100.00
13734;BME280;43298;52.560;13.508;2023-02-10T09:24:16;102816.53;;;4.15;100.00
13734;BME280;43298;52.560;13.508;2023-02-10T09:26:46;102821.75;;;4.19;100.00
13734;BME280;43298;52.560;13.508;2023-02-10T09:29:12;102824.34;;;4.21;100.00
13734;BME280;43298;52.560;13.508;2023-02-10T09:31:38;102831.13;;;4.19;100.00
13734;BME280;43298;52.560;13.508;2023-02-10T09:34:04;102833.59;;;4.14;100.00
13734;BME280;43298;52.560;13.508;2023-02-10T09:36:30;102831.31;;;4.28;100.00
13734;BME280;43298;52.560;13.508;2023-02-10T09:38:56;102834.09;;;4.41;100.00
13734;BME280;43298;52.560;13.508;2023-02-10T09:53:13;102851.78;;;4.78;100.00
13734;BME280;43298;52.560;13.508;2023-02-10T09:56:04;102851.19;;;4.94;100.00
13734;BME280;43298;52.560;13.508;2023-02-10T09:58:42;102855.50;;;4.98;100.00
13734;BME280;43298;52.560;13.508;2023-02-10T10:01:35;102855.38;;;4.89;100.00
13734;BME280;43298;52.560;13.508;2023-02-10T10:04:22;102861.53;;;5.02;100.00
13734;BME280;43298;52.560;13.508;2023-02-10T10:06:56;102865.28;;;4.68;100.00
13734;BME280;43298;52.560;13.508;2023-02-10T10:09:41;102865.88;;;4.52;100.00
13734;BME280;43298;52.560;13.508;2023-02-10T10:12:15;102870.81;;;4.43;100.00
13734;BME280;43298;52.560;13.508;2023-02-10T10:14:42;102878.44;;;4.39;100.00
13734;BME280;43298;52.560;13.508;2023-02-10T10:21:03;102865.81;;;4.49;100.00
13734;BME280;43298;52.560;13.508;2023-02-10T10:23:51;102864.88;;;4.44;100.00
13734;BME280;43298;52.560;13.508;2023-02-10T10:26:47;102866.59;;;4.45;100.00
13734;BME280;43298;52.560;13.508;2023-02-10T10:31:50;102871.22;;;4.66;100.00
13734;BME280;43298;52.560;13.508;2023-02-10T10:34:24;102866.16;;;4.70;100.00
13734;BME280;43298;52.560;13.508;2023-02-10T10:36:54;102867.03;;;4.69;100.00
13734;BME280;43298;52.560;13.508;2023-02-10T10:39:33;102863.44;;;4.60;100.00
13734;BME280;43298;52.560;13.508;2023-02-10T10:44:45;102866.91;;;4.63;100.00
13734;BME280;43298;52.560;13.508;2023-02-10T10:47:28;102861.88;;;4.68;100.00
13734;BME280;43298;52.560;13.508;2023-02-10T10:49:56;102855.03;;;4.70;100.00
13734;BME280;43298;52.560;13.508;2023-02-10T10:52:33;102855.06;;;4.71;100.00
13734;BME280;43298;52.560;13.508;2023-02-10T10:55:16;102850.00;;;4.74;100.00
13734;BME280;43298;52.560;13.508;2023-02-10T10:57:45;102844.94;;;4.77;100.00
13734;BME280;43298;52.560;13.508;2023-02-10T11:00:27;102847.00;;;5.01;100.00
13734;BME280;43298;52.560;13.508;2023-02-10T11:03:04;102844.38;;;4.98;100.00
13734;BME280;43298;52.560;13.508;2023-02-10T11:05:36;102844.56;;;5.08;100.00
13734;BME280;43298;52.560;13.508;2023-02-10T11:08:05;102842.81;;;5.04;100.00
13734;BME280;43298;52.560;13.508;2023-02-10T11:10:46;102840.31;;;5.10;100.00
13734;BME280;43298;52.560;13.508;2023-02-10T11:13:26;102837.31;;;5.40;100.00
13734;BME280;43298;52.560;13.508;2023-02-10T11:16:13;102845.19;;;5.55;100.00
13734;BME280;43298;52.560;13.508;2023-02-10T11:19:01;102842.00;;;5.72;100.00
13734;BME280;43298;52.560;13.508;2023-02-10T11:21:39;102833.91;;;6.11;100.00
13734;BME280;43298;52.560;13.508;2023-02-10T11:27:05;102824.44;;;6.07;100.00
13734;BME280;43298;52.560;13.508;2023-02-10T11:29:34;102826.25;;;6.15;100.00
13734;BME280;43298;52.560;13.508;2023-02-10T11:32:05;102830.44;;;6.07;100.00
13734;BME280;43298;52.560;13.508;2023-02-10T11:34:44;102834.91;;;6.27;100.00
13734;BME280;43298;52.560;13.508;2023-02-10T11:37:28;102831.44;;;6.23;100.00
13734;BME280;43298;52.560;13.508;2023-02-10T11:39:57;102829.69;;;6.19;100.00
13734;BME280;43298;52.560;13.508;2023-02-10T11:42:28;102827.91;;;6.09;100.00
13734;BME280;43298;52.560;13.508;2023-02-10T11:44:57;102824.78;;;6.43;100.00
13734;BME280;43298;52.560;13.508;2023-02-10T11:47:25;102825.13;;;6.84;100.00
13734;BME280;43298;52.560;13.508;2023-02-10T11:49:52;102830.56;;;7.36;100.00
13734;BME280;43298;52.560;13.508;2023-02-10T11:52:21;102824.44;;;7.12;100.00
13734;BME280;43298;52.560;13.508;2023-02-10T11:54:50;102829.38;;;6.83;100.00
13734;BME280;43298;52.560;13.508;2023-02-10T12:01:03;102833.97;;;7.29;100.00
13734;BME280;43298;52.560;13.508;2023-02-10T12:06:37;102823.81;;;7.65;100.00
13734;BME280;43298;52.560;13.508;2023-02-10T12:09:33;102823.81;;;7.56;100.00
13734;BME280;43298;52.560;13.508;2023-02-10T12:12:14;102821.03;;;7.14;100.00
13734;BME280;43298;52.560;13.508;2023-02-10T12:17:27;102817.56;;;7.12;100.00
13734;BME280;43298;52.560;13.508;2023-02-10T12:31:21;102803.06;;;7.23;100.00
13734;BME280;43298;52.560;13.508;2023-02-10T12:39:17;102803.06;;;7.22;100.00
13734;BME280;43298;52.560;13.508;2023-02-10T12:54:33;102777.44;;;7.43;100.00
13734;BME280;43298;52.560;13.508;2023-02-10T12:57:09;102785.97;;;7.31;100.00
13734;BME280;43298;52.560;13.508;2023-02-10T12:59:51;102797.81;;;7.01;100.00
13734;BME280;43298;52.560;13.508;2023-02-10T13:02:59;102803.75;;;6.92;100.00
13734;BME280;43298;52.560;13.508;2023-02-10T13:05:46;102800.22;;;6.78;100.00
13734;BME280;43298;52.560;13.508;2023-02-10T13:08:23;102792.31;;;6.54;100.00
13734;BME280;43298;52.560;13.508;2023-02-10T13:10:56;102787.16;;;6.51;100.00
13734;BME280;43298;52.560;13.508;2023-02-10T13:13:31;102797.41;;;6.48;100.00
13734;BME280;43298;52.560;13.508;2023-02-10T13:16:17;102786.19;;;6.37;100.00
13734;BME280;43298;52.560;13.508;2023-02-10T13:22:21;102782.66;;;6.26;100.00
13734;BME280;43298;52.560;13.508;2023-02-10T13:25:16;102775.00;;;6.29;100.00
13734;BME280;43298;52.560;13.508;2023-02-10T13:36:19;102786.19;;;6.37;100.00
13734;BME280;43298;52.560;13.508;2023-02-10T13:39:04;102775.88;;;6.33;100.00
13734;BME280;43298;52.560;13.508;2023-02-10T13:41:35;102777.56;;;6.29;100.00
13734;BME280;43298;52.560;13.508;2023-02-10T13:44:30;102774.16;;;6.32;100.00
13734;BME280;43298;52.560;13.508;2023-02-10T13:49:38;102775.75;;;6.19;100.00
13734;BME280;43298;52.560;13.508;2023-02-10T13:52:24;102763.81;;;6.22;100.00
13734;BME280;43298;52.560;13.508;2023-02-10T13:54:58;102771.56;;;6.30;100.00
13734;BME280;43298;52.560;13.508;2023-02-10T13:57:35;102767.41;;;6.41;100.00
13734;BME280;43298;52.560;13.508;2023-02-10T14:02:42;102763.19;;;6.52;100.00
13734;BME280;43298;52.560;13.508;2023-02-10T14:08:32;102753.69;;;6.41;100.00
13734;BME280;43298;52.560;13.508;2023-02-10T14:13:35;102746.84;;;6.44;100.00
13734;BME280;43298;52.560;13.508;2023-02-10T14:16:07;102751.97;;;6.41;100.00
13734;BME280;43298;52.560;13.508;2023-02-10T14:19:00;102746.00;;;6.44;100.00
13734;BME280;43298;52.560;13.508;2023-02-10T14:21:41;102748.59;;;6.45;100.00
13734;BME280;43298;52.560;13.508;2023-02-10T14:24:22;102742.63;;;6.52;100.00
13734;BME280;43298;52.560;13.508;2023-02-10T14:26:50;102738.31;;;6.51;100.00
13734;BME280;43298;52.560;13.508;2023-02-10T14:29:19;102737.44;;;6.45;100.00
13734;BME280;43298;52.560;13.508;2023-02-10T14:31:52;102733.16;;;6.45;100.00